Time;durP1;ratioP1;P1;durP2;ratioP2;P2;SDS_P1;SDS_P2;PMS_P1;PMS_P2;Temp;Humidity;BMP_temperature;BMP_pressure;BME280_temperature;BME280_humidity;BME280_pressure;Samples;Min_cycle;Max_cycle;Signal;HPM_P1;HPM_P2
2023/11/30 00:02:14;;;;;;;0.20;0.20;;;4.20;91.60;;;;;;5096240;28;20415;-76
2023/11/30 00:04:39;;;;;;;0.20;0.20;;;4.20;91.70;;;;;;5078838;28;20364;-76
2023/11/30 00:07:10;;;;;;;0.93;0.77;;;4.30;91.80;;;;;;5062538;28;20031;-76
2023/11/30 00:09:36;;;;;;;0.20;0.20;;;4.30;91.90;;;;;;5114140;28;20254;-76
2023/11/30 00:12:05;;;;;;;0.30;0.30;;;4.40;91.90;;;;;;5096029;28;20072;-77
2023/11/30 00:14:31;;;;;;;0.30;0.30;;;4.50;91.90;;;;;;5079417;28;20122;-76
2023/11/30 00:16:57;;;;;;;0.40;0.40;;;4.50;91.80;;;;;;5078971;28;20118;-76
2023/11/30 00:19:23;;;;;;;0.40;0.40;;;4.50;91.80;;;;;;5095905;28;20035;-77
2023/11/30 00:21:48;;;;;;;0.38;0.38;;;4.40;91.80;;;;;;5062109;28;20035;-76
2023/11/30 00:24:14;;;;;;;0.43;0.43;;;4.30;91.80;;;;;;5095664;28;20130;-76
2023/11/30 00:26:40;;;;;;;0.50;0.50;;;4.30;91.90;;;;;;5095596;28;20043;-76
2023/11/30 00:29:06;;;;;;;0.50;0.50;;;4.30;92.00;;;;;;5095733;28;20028;-76
2023/11/30 00:31:31;;;;;;;0.50;0.50;;;4.30;91.90;;;;;;5094949;28;20513;-76
2023/11/30 00:33:57;;;;;;;0.50;0.50;;;4.30;91.90;;;;;;5095627;28;20103;-76
2023/11/30 00:36:23;;;;;;;0.47;0.47;;;4.30;91.90;;;;;;5081163;28;20031;-76
2023/11/30 00:38:48;;;;;;;0.43;0.43;;;4.30;91.90;;;;;;5095629;28;20032;-76
2023/11/30 00:41:15;;;;;;;0.47;0.47;;;4.40;91.90;;;;;;5095465;28;20031;-76
2023/11/30 00:43:41;;;;;;;0.40;0.40;;;4.40;91.80;;;;;;5113658;28;20106;-77
2023/11/30 00:46:14;;;;;;;0.60;0.60;;;4.40;91.80;;;;;;5095217;28;20583;-76
2023/11/30 00:48:40;;;;;;;0.50;0.50;;;4.30;91.80;;;;;;5079658;28;20038;-77
2023/11/30 00:51:12;;;;;;;;;;;4.30;91.90;;;;;;5078722;28;20028;-76
2023/11/30 00:53:38;;;;;;;0.40;0.40;;;4.30;91.90;;;;;;5095178;28;20002;-76
2023/11/30 00:56:05;;;;;;;0.50;0.50;;;4.30;91.80;;;;;;5078265;28;20028;-76
2023/11/30 00:58:30;;;;;;;0.50;0.50;;;4.30;91.90;;;;;;5095112;28;20046;-72
2023/11/30 01:00:57;;;;;;;0.57;0.57;;;4.30;91.90;;;;;;5113208;28;20024;-76
2023/11/30 01:03:22;;;;;;;0.50;0.50;;;4.30;91.90;;;;;;5113416;28;20089;-76
2023/11/30 01:05:48;;;;;;;0.60;0.60;;;4.40;91.90;;;;;;5095109;28;20514;-76
2023/11/30 01:08:15;;;;;;;0.60;0.60;;;4.50;92.00;;;;;;5113227;28;20483;-76
2023/11/30 01:10:44;;;;;;;0.60;0.60;;;4.50;91.90;;;;;;5113040;28;20020;-76
2023/11/30 01:13:10;;;;;;;0.50;0.50;;;4.50;91.80;;;;;;5095305;28;20027;-76
2023/11/30 01:15:35;;;;;;;0.68;0.68;;;4.50;91.80;;;;;;5112998;28;20020;-76
2023/11/30 01:18:03;;;;;;;0.50;0.50;;;4.50;91.80;;;;;;5078222;28;20073;-76
2023/11/30 01:20:30;;;;;;;0.55;0.55;;;4.50;91.90;;;;;;5094519;28;20020;-76
2023/11/30 01:22:55;;;;;;;0.70;0.70;;;4.50;91.90;;;;;;5112890;28;20043;-77
2023/11/30 01:25:21;;;;;;;0.60;0.60;;;4.50;91.90;;;;;;5094464;28;20534;-77
2023/11/30 01:27:47;;;;;;;0.60;0.60;;;4.50;91.90;;;;;;5094441;28;20398;-76
2023/11/30 01:30:13;;;;;;;0.60;0.60;;;4.50;91.90;;;;;;5060883;28;20113;-76
2023/11/30 01:32:38;;;;;;;0.60;0.60;;;4.60;92.00;;;;;;5094344;28;20035;-76
2023/11/30 01:35:05;;;;;;;0.70;0.70;;;4.60;91.90;;;;;;5061341;28;20058;-76
2023/11/30 01:37:31;;;;;;;0.60;0.60;;;4.60;91.80;;;;;;5094240;28;20442;-77
2023/11/30 01:39:56;;;;;;;0.60;0.60;;;4.50;91.70;;;;;;5112988;28;20028;-76
2023/11/30 01:42:22;;;;;;;0.77;0.77;;;4.40;91.70;;;;;;5059774;28;20040;-76
2023/11/30 01:44:48;;;;;;;0.70;0.70;;;4.30;91.80;;;;;;5094236;28;20027;-76
2023/11/30 01:47:15;;;;;;;0.73;0.73;;;4.30;91.80;;;;;;5112351;28;20089;-76
2023/11/30 01:49:41;;;;;;;0.60;0.60;;;4.30;91.80;;;;;;5060998;28;20555;-76
2023/11/30 01:52:07;;;;;;;0.60;0.60;;;4.30;91.80;;;;;;5077095;28;20035;-76
2023/11/30 01:54:34;;;;;;;0.60;0.60;;;4.30;91.80;;;;;;5077253;28;20475;-76
2023/11/30 01:56:59;;;;;;;0.60;0.60;;;4.20;91.80;;;;;;5112165;28;20035;-76
2023/11/30 01:59:25;;;;;;;0.70;0.70;;;4.20;91.80;;;;;;5094092;28;20035;-77
2023/11/30 02:01:51;;;;;;;0.68;0.68;;;4.20;91.80;;;;;;5060309;28;20134;-76
2023/11/30 02:04:17;;;;;;;0.50;0.50;;;4.20;91.80;;;;;;5094058;28;20027;-76
2023/11/30 02:06:46;;;;;;;0.60;0.60;;;4.20;91.80;;;;;;5079705;28;20032;-76
2023/11/30 02:09:13;;;;;;;0.80;0.80;;;4.20;91.80;;;;;;5078347;28;20027;-76
2023/11/30 02:11:39;;;;;;;0.70;0.70;;;4.30;91.90;;;;;;5076897;28;20125;-77
2023/11/30 02:14:05;;;;;;;0.75;0.75;;;4.30;91.90;;;;;;5093657;28;20069;-77
2023/11/30 02:16:31;;;;;;;0.80;0.80;;;4.20;91.90;;;;;;5093631;28;20031;-78
2023/11/30 02:18:57;;;;;;;1.08;1.08;;;4.20;91.90;;;;;;5093695;28;20039;-77
2023/11/30 02:21:24;;;;;;;1.00;1.00;;;4.20;91.90;;;;;;5111881;28;20031;-76
2023/11/30 02:23:50;;;;;;;0.80;0.80;;;4.20;92.00;;;;;;5093306;28;20321;-78
2023/11/30 02:26:16;;;;;;;;;;;4.10;91.90;;;;;;5077058;28;20036;-77
2023/11/30 02:28:42;;;;;;;0.70;0.70;;;4.10;92.00;;;;;;5093335;28;20321;-77
2023/11/30 02:31:08;;;;;;;0.80;0.80;;;4.10;92.00;;;;;;5076635;28;20489;-77
2023/11/30 02:33:33;;;;;;;0.82;0.82;;;4.10;92.00;;;;;;5111646;28;20106;-76
2023/11/30 02:35:59;;;;;;;0.90;0.90;;;4.10;91.90;;;;;;5076462;28;20144;-77
2023/11/30 02:38:25;;;;;;;0.80;0.80;;;4.10;91.80;;;;;;5076663;28;20038;-77
2023/11/30 02:40:50;;;;;;;0.90;0.90;;;4.10;91.90;;;;;;5076307;28;20031;-77
2023/11/30 02:43:16;;;;;;;0.60;0.60;;;4.10;91.90;;;;;;5111634;28;20035;-77
2023/11/30 02:45:42;;;;;;;1.00;1.00;;;4.10;91.90;;;;;;5076448;28;20040;-77
2023/11/30 02:48:07;;;;;;;0.80;0.80;;;4.10;91.90;;;;;;5093431;28;20085;-77
2023/11/30 02:50:33;;;;;;;0.80;0.80;;;4.10;91.90;;;;;;5076340;28;20051;-77
2023/11/30 02:52:59;;;;;;;0.80;0.80;;;4.10;91.80;;;;;;5076454;28;20024;-77
2023/11/30 02:55:25;;;;;;;;;;;4.10;91.80;;;;;;5097046;28;20030;-77
2023/11/30 02:57:51;;;;;;;1.00;1.00;;;4.10;91.80;;;;;;5080374;28;19912;-77
2023/11/30 03:00:17;;;;;;;0.90;0.90;;;4.10;91.70;;;;;;5097274;28;20065;-76
2023/11/30 03:02:42;;;;;;;0.95;0.95;;;4.00;91.70;;;;;;5097417;28;20454;-77
2023/11/30 03:05:08;;;;;;;1.00;1.00;;;4.00;91.70;;;;;;5080440;28;20114;-77
2023/11/30 03:07:34;;;;;;;1.00;1.00;;;4.00;91.70;;;;;;5080402;28;20067;-77
2023/11/30 03:09:59;;;;;;;1.30;1.20;;;4.00;91.70;;;;;;5063381;28;20024;-77
2023/11/30 03:12:25;;;;;;;1.10;1.10;;;3.90;91.70;;;;;;5080439;28;20386;-77
2023/11/30 03:14:51;;;;;;;1.50;1.40;;;3.90;91.70;;;;;;5097105;28;20080;-77
2023/11/30 03:17:16;;;;;;;1.30;1.20;;;3.90;91.70;;;;;;5080161;28;20426;-77
2023/11/30 03:19:42;;;;;;;1.35;1.25;;;3.80;91.70;;;;;;5096948;28;20035;-77
2023/11/30 03:22:09;;;;;;;1.10;1.10;;;3.80;91.70;;;;;;5097018;28;20038;-77
2023/11/30 03:24:34;;;;;;;1.15;1.15;;;3.80;91.70;;;;;;5079835;28;20052;-77
2023/11/30 03:27:00;;;;;;;1.10;1.10;;;3.70;91.70;;;;;;5063223;28;20035;-77
2023/11/30 03:29:25;;;;;;;1.05;1.05;;;3.70;91.80;;;;;;5096964;28;20028;-77
2023/11/30 03:31:51;;;;;;;1.10;1.10;;;3.70;91.80;;;;;;5080078;28;20035;-77
2023/11/30 03:34:17;;;;;;;1.10;1.10;;;3.70;91.80;;;;;;5063275;28;20096;-77
2023/11/30 03:36:43;;;;;;;1.40;1.30;;;3.80;91.90;;;;;;5096742;28;20040;-77
2023/11/30 03:39:09;;;;;;;1.30;1.20;;;3.90;91.80;;;;;;5119412;28;20024;-76
2023/11/30 03:41:34;;;;;;;1.30;1.20;;;3.90;91.80;;;;;;5079870;28;20090;-77
2023/11/30 03:44:00;;;;;;;1.02;1.02;;;4.00;91.80;;;;;;5096789;28;20551;-77
2023/11/30 03:46:27;;;;;;;1.10;1.10;;;4.00;91.80;;;;;;5079540;28;20569;-77
2023/11/30 03:48:54;;;;;;;0.90;0.90;;;4.10;91.90;;;;;;5096485;28;20024;-77
2023/11/30 03:51:20;;;;;;;1.10;1.10;;;4.10;91.90;;;;;;5096212;28;20027;-77
2023/11/30 03:53:46;;;;;;;1.10;1.10;;;4.20;91.90;;;;;;5114628;28;20028;-77
2023/11/30 03:56:12;;;;;;;1.13;1.10;;;4.30;91.90;;;;;;5079431;28;20188;-77
2023/11/30 03:58:38;;;;;;;1.00;1.00;;;4.40;91.90;;;;;;5096371;28;20031;-77
2023/11/30 04:01:04;;;;;;;1.10;1.10;;;4.50;91.90;;;;;;5114471;28;20161;-77
2023/11/30 04:03:31;;;;;;;1.10;1.10;;;4.50;91.80;;;;;;5114439;28;20444;-77
2023/11/30 04:05:57;;;;;;;1.50;1.40;;;4.50;91.80;;;;;;5113274;28;20111;-76
2023/11/30 04:08:22;;;;;;;1.30;1.20;;;4.50;91.80;;;;;;5079030;28;20164;-77
2023/11/30 04:10:48;;;;;;;1.10;1.10;;;4.50;91.80;;;;;;5078981;28;20023;-77
2023/11/30 04:13:14;;;;;;;1.30;1.20;;;4.60;91.80;;;;;;5114304;28;20112;-77
2023/11/30 04:15:40;;;;;;;1.10;1.10;;;4.60;91.80;;;;;;5096082;28;20024;-77
2023/11/30 04:18:06;;;;;;;1.13;1.10;;;4.60;91.80;;;;;;5095695;28;20038;-77
2023/11/30 04:20:31;;;;;;;1.30;1.20;;;4.60;91.80;;;;;;5095780;28;20031;-77
2023/11/30 04:22:57;;;;;;;1.10;1.10;;;4.50;91.80;;;;;;5062061;28;20505;-78
2023/11/30 04:25:23;;;;;;;1.08;1.08;;;4.60;91.90;;;;;;5078664;28;20040;-77
2023/11/30 04:27:48;;;;;;;0.70;0.70;;;4.60;91.90;;;;;;5078708;28;20130;-77
2023/11/30 04:30:14;;;;;;;0.70;0.70;;;4.60;91.90;;;;;;5113908;28;20077;-77
2023/11/30 04:32:40;;;;;;;0.90;0.90;;;4.70;91.90;;;;;;5078656;28;20028;-77
2023/11/30 04:35:06;;;;;;;0.70;0.70;;;4.70;91.90;;;;;;5095686;28;20043;-77
2023/11/30 04:37:31;;;;;;;0.70;0.70;;;4.70;91.90;;;;;;5113753;28;20085;-77
2023/11/30 04:39:57;;;;;;;0.90;0.90;;;4.70;91.90;;;;;;5061939;28;20059;-77
2023/11/30 04:42:23;;;;;;;1.00;1.00;;;4.70;91.90;;;;;;5078558;28;20483;-77
2023/11/30 04:44:49;;;;;;;3.20;3.00;;;4.70;91.90;;;;;;5078448;28;20032;-77
2023/11/30 04:47:14;;;;;;;10.30;9.80;;;4.60;91.80;;;;;;5095482;28;20034;-77
2023/11/30 04:49:40;;;;;;;13.15;12.55;;;4.50;91.70;;;;;;5095008;28;20096;-78
2023/11/30 04:52:06;;;;;;;25.95;24.95;;;4.40;91.70;;;;;;5113440;28;20027;-77
2023/11/30 04:54:31;;;;;;;31.23;30.02;;;4.30;91.70;;;;;;5078536;28;20375;-77
2023/11/30 04:56:57;;;;;;;28.67;27.58;;;4.30;91.80;;;;;;5113319;28;20040;-77
2023/11/30 04:59:23;;;;;;;30.55;29.35;;;4.20;91.80;;;;;;5078148;28;20028;-77
2023/11/30 05:01:48;;;;;;;31.08;29.88;;;4.20;91.90;;;;;;5078062;28;20036;-76
2023/11/30 05:04:14;;;;;;;31.05;29.85;;;4.10;91.90;;;;;;5095280;28;20130;-77
2023/11/30 05:06:40;;;;;;;33.10;31.80;;;4.10;91.90;;;;;;5094836;28;20153;-77
2023/11/30 05:09:05;;;;;;;32.60;31.30;;;4.10;91.90;;;;;;5094948;28;20475;-77
2023/11/30 05:11:31;;;;;;;30.98;29.77;;;4.00;91.90;;;;;;5078734;28;20027;-77
2023/11/30 05:13:58;;;;;;;30.30;29.10;;;4.00;92.00;;;;;;5061408;28;20432;-72
2023/11/30 05:16:24;;;;;;;32.38;31.08;;;4.00;91.90;;;;;;5112957;28;20110;-77
2023/11/30 05:18:50;;;;;;;32.67;31.38;;;4.00;91.90;;;;;;5078709;28;20106;-78
2023/11/30 05:21:16;;;;;;;31.17;29.98;;;4.00;91.80;;;;;;5079379;28;20028;-78
2023/11/30 05:23:42;;;;;;;;;;;4.00;91.90;;;;;;5095138;28;20118;-78
2023/11/30 05:26:07;;;;;;;32.25;30.95;;;3.90;91.80;;;;;;5112692;28;20006;-78
2023/11/30 05:28:33;;;;;;;32.70;31.40;;;3.80;91.90;;;;;;5094796;28;20077;-78
2023/11/30 05:30:59;;;;;;;33.05;31.75;;;3.70;91.80;;;;;;5077697;28;20035;-78
2023/11/30 05:33:27;;;;;;;33.70;32.40;;;3.70;91.90;;;;;;5094654;28;20417;-78
2023/11/30 05:35:52;;;;;;;35.30;33.90;;;3.60;92.00;;;;;;5112852;28;20068;-78
2023/11/30 05:38:19;;;;;;;35.42;34.03;;;3.60;92.00;;;;;;5094627;28;20445;-78
2023/11/30 05:40:45;;;;;;;34.95;33.55;;;3.60;92.00;;;;;;5077500;28;20024;-78
2023/11/30 05:43:11;;;;;;;35.38;33.97;;;3.60;92.00;;;;;;5077316;28;20058;-78
2023/11/30 05:45:37;;;;;;;34.97;33.58;;;3.70;92.00;;;;;;5094206;28;20043;-78
2023/11/30 05:48:03;;;;;;;36.67;35.17;;;3.70;92.00;;;;;;5094079;28;20059;-78
2023/11/30 05:50:28;;;;;;;38.63;37.03;;;3.70;91.90;;;;;;5094165;28;20024;-78
2023/11/30 05:52:54;;;;;;;37.60;36.00;;;3.70;91.90;;;;;;5077442;28;20080;-78
2023/11/30 05:55:20;;;;;;;38.03;36.42;;;3.70;92.00;;;;;;5077126;28;20032;-78
2023/11/30 05:57:46;;;;;;;;;;;3.70;92.00;;;;;;5077504;28;20043;-78
2023/11/30 06:00:12;;;;;;;39.17;37.58;;;3.60;92.00;;;;;;5093762;28;20021;-78
2023/11/30 06:02:39;;;;;;;37.38;35.83;;;3.60;91.90;;;;;;5077019;28;20028;-79
2023/11/30 06:05:05;;;;;;;38.47;36.88;;;3.50;91.90;;;;;;5093659;28;20031;-78
2023/11/30 06:07:31;;;;;;;38.78;37.17;;;3.50;92.10;;;;;;5111903;28;20030;-78
2023/11/30 06:09:56;;;;;;;37.92;36.33;;;3.40;91.90;;;;;;5076838;28;20031;-78
2023/11/30 06:12:22;;;;;;;39.03;37.42;;;3.50;92.00;;;;;;5111944;28;20451;-79
2023/11/30 06:14:49;;;;;;;38.83;37.22;;;3.40;92.00;;;;;;5111772;28;20046;-78
2023/11/30 06:17:17;;;;;;;37.85;36.25;;;3.40;92.00;;;;;;5076812;28;20482;-79
2023/11/30 06:19:43;;;;;;;37.97;36.38;;;3.50;92.10;;;;;;5093850;28;20046;-78
2023/11/30 06:22:08;;;;;;;37.80;36.20;;;3.60;92.10;;;;;;5076677;28;20115;-79
2023/11/30 06:24:35;;;;;;;38.83;37.13;;;3.60;92.10;;;;;;5093368;28;20043;-78
2023/11/30 06:27:01;;;;;;;38.42;36.83;;;3.60;92.00;;;;;;5093358;28;20487;-78
2023/11/30 06:29:28;;;;;;;38.25;36.65;;;3.70;92.00;;;;;;5059767;28;20484;-78
2023/11/30 06:31:57;;;;;;;38.45;36.83;;;3.70;92.00;;;;;;5076909;28;20020;-77
2023/11/30 06:34:23;;;;;;;39.92;38.22;;;3.80;92.10;;;;;;5093082;28;20096;-78
2023/11/30 06:36:49;;;;;;;39.08;37.38;;;3.80;92.00;;;;;;5093461;28;20487;-77
2023/11/30 06:39:15;;;;;;;39.08;37.38;;;3.90;92.00;;;;;;5111397;28;20091;-78
2023/11/30 06:41:40;;;;;;;37.75;36.15;;;3.90;92.00;;;;;;5111611;28;20353;-78
2023/11/30 06:44:06;;;;;;;37.97;36.38;;;3.90;92.00;;;;;;5112000;28;20063;-77
2023/11/30 06:46:32;;;;;;;37.47;35.88;;;3.90;92.00;;;;;;5093384;28;20116;-78
2023/11/30 06:48:57;;;;;;;37.65;36.05;;;3.90;92.00;;;;;;5093559;28;20031;-78
2023/11/30 06:51:23;;;;;;;38.40;36.80;;;3.90;92.00;;;;;;5076665;28;20383;-78
2023/11/30 06:53:49;;;;;;;38.70;37.05;;;3.90;92.00;;;;;;5093269;28;20109;-77
2023/11/30 06:56:14;;;;;;;37.47;35.88;;;3.90;92.00;;;;;;5093356;28;20036;-77
2023/11/30 06:58:40;;;;;;;38.00;36.40;;;3.80;92.00;;;;;;5092912;28;20462;-77
2023/11/30 07:01:06;;;;;;;38.50;36.90;;;3.80;92.00;;;;;;5093105;28;20042;-78
2023/11/30 07:03:32;;;;;;;;;;;3.80;92.00;;;;;;5093293;28;20526;-77
2023/11/30 07:05:58;;;;;;;37.55;35.95;;;3.70;91.90;;;;;;5093102;28;19907;-77
2023/11/30 07:08:23;;;;;;;38.05;36.45;;;3.70;91.80;;;;;;5093488;28;20455;-77
2023/11/30 07:10:49;;;;;;;37.78;36.17;;;3.60;91.80;;;;;;5111184;28;20035;-78
2023/11/30 07:13:16;;;;;;;38.15;36.55;;;3.50;91.80;;;;;;5093346;28;20116;-77
2023/11/30 07:15:43;;;;;;;38.15;36.55;;;3.50;91.80;;;;;;5094088;28;20056;-78
2023/11/30 07:18:09;;;;;;;38.97;37.38;;;3.40;91.80;;;;;;5113910;28;20031;-78
2023/11/30 07:20:35;;;;;;;38.55;36.95;;;3.30;91.80;;;;;;5079055;28;20118;-77
2023/11/30 07:23:00;;;;;;;38.70;37.10;;;3.20;91.80;;;;;;5092830;28;20419;-77
2023/11/30 07:25:26;;;;;;;37.65;36.05;;;3.10;91.70;;;;;;5111593;28;20451;-77
2023/11/30 07:27:55;;;;;;;37.20;35.70;;;3.00;91.70;;;;;;5075908;28;20487;-76
2023/11/30 07:30:20;;;;;;;37.92;36.33;;;3.00;91.70;;;;;;5111006;28;20015;-77
2023/11/30 07:32:46;;;;;;;38.40;36.80;;;2.90;91.70;;;;;;5076001;28;20057;-77
2023/11/30 07:35:12;;;;;;;38.60;37.00;;;2.80;91.70;;;;;;5092671;28;20027;-77
2023/11/30 07:37:38;;;;;;;37.45;35.95;;;2.70;91.70;;;;;;5092584;28;20513;-77
2023/11/30 07:40:04;;;;;;;37.42;35.90;;;2.70;91.70;;;;;;5093304;28;20084;-77
2023/11/30 07:42:30;;;;;;;36.70;35.20;;;2.70;91.80;;;;;;5096605;28;20055;-77
2023/11/30 07:44:56;;;;;;;39.25;37.65;;;2.70;91.80;;;;;;5079529;28;20064;-76
2023/11/30 07:47:22;;;;;;;38.80;37.20;;;2.60;91.70;;;;;;5114586;28;20040;-77
2023/11/30 07:49:48;;;;;;;38.05;36.45;;;2.70;91.80;;;;;;5078363;28;20353;-77
2023/11/30 07:52:14;;;;;;;;;;;2.60;91.70;;;;;;5096391;28;20549;-76
2023/11/30 07:54:40;;;;;;;38.20;36.60;;;2.70;91.80;;;;;;5095905;28;19970;-76
2023/11/30 07:57:06;;;;;;;37.60;36.00;;;2.70;91.70;;;;;;5096154;28;20468;-76
2023/11/30 07:59:31;;;;;;;37.78;36.17;;;2.70;91.70;;;;;;5062115;28;20028;-76
2023/11/30 08:01:57;;;;;;;37.13;35.60;;;2.60;91.60;;;;;;5095027;28;20402;-76
2023/11/30 08:04:23;;;;;;;36.25;34.75;;;2.60;91.70;;;;;;5095548;28;20085;-76
2023/11/30 08:06:49;;;;;;;39.28;37.67;;;2.60;91.70;;;;;;5095490;28;20189;-77
2023/11/30 08:09:14;;;;;;;37.38;35.88;;;2.60;91.70;;;;;;5096449;28;20497;-76
2023/11/30 08:11:41;;;;;;;37.15;35.65;;;2.60;91.70;;;;;;5114725;28;20023;-77
2023/11/30 08:14:07;;;;;;;;;;;2.60;91.70;;;;;;5114538;28;20028;-76
2023/11/30 08:16:33;;;;;;;35.47;34.00;;;2.60;91.70;;;;;;5101643;28;19908;-75
2023/11/30 08:18:59;;;;;;;35.78;34.30;;;2.60;91.60;;;;;;5114491;28;20265;-77
2023/11/30 08:21:25;;;;;;;36.75;35.25;;;2.60;91.60;;;;;;5078957;28;20035;-77
2023/11/30 08:23:51;;;;;;;36.38;34.88;;;2.60;91.60;;;;;;5095754;28;20434;-77
2023/11/30 08:26:17;;;;;;;36.22;34.72;;;2.60;91.60;;;;;;5113398;28;20126;-76
2023/11/30 08:28:46;;;;;;;36.90;35.40;;;2.60;91.70;;;;;;5095725;28;20437;-77
2023/11/30 08:31:12;;;;;;;34.78;33.38;;;2.60;91.70;;;;;;5095374;28;20072;-77
2023/11/30 08:33:38;;;;;;;;;;;2.60;91.70;;;;;;5096056;28;20030;-77
2023/11/30 08:36:04;;;;;;;35.60;34.10;;;2.70;91.80;;;;;;5113987;28;20503;-76
2023/11/30 08:38:36;;;;;;;36.67;35.17;;;2.80;91.70;;;;;;5096080;28;20045;-76
2023/11/30 08:41:02;;;;;;;35.10;33.70;;;2.90;91.70;;;;;;5113721;28;20403;-77
2023/11/30 08:43:29;;;;;;;35.72;34.22;;;2.90;91.70;;;;;;5078568;28;20471;-77
2023/11/30 08:45:54;;;;;;;34.00;32.60;;;3.00;91.70;;;;;;5113165;28;20390;-76
2023/11/30 08:48:20;;;;;;;35.10;33.70;;;3.10;91.70;;;;;;5078509;28;20024;-76
2023/11/30 08:50:47;;;;;;;34.17;32.78;;;3.10;91.70;;;;;;5095240;28;20093;-76
2023/11/30 08:53:12;;;;;;;33.45;32.15;;;3.10;91.70;;;;;;5077837;28;20028;-77
2023/11/30 08:55:38;;;;;;;30.70;29.50;;;3.20;91.70;;;;;;5095043;28;20471;-76
2023/11/30 08:58:04;;;;;;;29.42;28.23;;;3.20;91.70;;;;;;5078004;28;20034;-75
2023/11/30 09:00:30;;;;;;;30.83;29.63;;;3.20;91.80;;;;;;5095032;28;20513;-75
2023/11/30 09:02:56;;;;;;;29.45;28.25;;;3.30;91.80;;;;;;5112625;28;20110;-75
2023/11/30 09:05:23;;;;;;;27.40;26.30;;;3.30;91.80;;;;;;5077658;28;20032;-75
2023/11/30 09:07:53;;;;;;;28.35;27.25;;;3.30;91.90;;;;;;5094367;28;20069;-75
2023/11/30 09:10:21;;;;;;;27.20;26.10;;;3.40;92.00;;;;;;5112682;28;20101;-75
2023/11/30 09:12:47;;;;;;;28.60;27.50;;;3.50;91.90;;;;;;5112640;28;20100;-75
2023/11/30 09:15:13;;;;;;;25.00;24.00;;;3.50;91.80;;;;;;5094339;28;20122;-76
2023/11/30 09:17:39;;;;;;;26.13;25.10;;;3.60;91.70;;;;;;5112615;28;20441;-75
2023/11/30 09:20:08;;;;;;;27.27;26.17;;;3.60;91.80;;;;;;5112830;28;20574;-76
2023/11/30 09:22:37;;;;;;;25.50;24.50;;;3.60;91.90;;;;;;5112295;28;20035;-76
2023/11/30 09:25:03;;;;;;;21.75;20.85;;;3.60;91.90;;;;;;5112276;28;20047;-75
2023/11/30 09:27:29;;;;;;;22.08;21.17;;;3.70;91.90;;;;;;5113009;28;20084;-75
2023/11/30 09:29:55;;;;;;;20.80;19.98;;;3.70;91.90;;;;;;5111818;28;20027;-76
2023/11/30 09:32:22;;;;;;;19.85;19.05;;;3.80;91.90;;;;;;5060416;28;20027;-76
2023/11/30 09:34:48;;;;;;;18.63;17.83;;;3.80;91.90;;;;;;5093522;28;20081;-76
2023/11/30 09:37:14;;;;;;;18.30;17.52;;;3.90;91.90;;;;;;5093795;28;20088;-76
2023/11/30 09:39:40;;;;;;;21.15;20.30;;;3.90;91.90;;;;;;5112059;28;20566;-75
2023/11/30 09:42:06;;;;;;;21.05;20.23;;;3.90;91.90;;;;;;5093723;28;20035;-75
2023/11/30 09:44:33;;;;;;;21.30;20.40;;;3.90;91.90;;;;;;5111834;28;20024;-76
2023/11/30 09:46:59;;;;;;;;;;;4.00;92.00;;;;;;5112592;28;20024;-75
2023/11/30 09:49:25;;;;;;;17.02;16.33;;;4.10;92.00;;;;;;5112293;28;19931;-75
2023/11/30 09:51:52;;;;;;;19.98;19.17;;;4.20;92.00;;;;;;5093575;28;20026;-75
2023/11/30 09:54:19;;;;;;;19.67;18.88;;;4.20;91.90;;;;;;5112319;28;20114;-76
2023/11/30 09:56:45;;;;;;;21.45;20.55;;;4.30;91.90;;;;;;5094782;28;20034;-76
2023/11/30 09:59:11;;;;;;;;;;;4.30;92.00;;;;;;5113917;28;20028;-74
2023/11/30 10:01:39;;;;;;;18.60;17.80;;;4.40;92.00;;;;;;5111559;28;19992;-74
2023/11/30 10:04:15;;;;;;;18.17;17.40;;;4.50;91.90;;;;;;5111823;27;20028;-74
2023/11/30 10:06:42;;;;;;;18.02;17.30;;;4.60;92.00;;;;;;5098626;27;20108;-75
2023/11/30 10:09:14;;;;;;;16.92;16.23;;;4.70;92.00;;;;;;5110283;28;20027;-75
2023/11/30 10:11:40;;;;;;;16.88;16.17;;;4.80;92.00;;;;;;5100238;28;20085;-74
2023/11/30 10:14:07;;;;;;;;;;;4.80;92.10;;;;;;5094378;28;20028;-74
2023/11/30 10:16:34;;;;;;;13.25;12.65;;;5.00;92.10;;;;;;5112860;28;20399;-74
2023/11/30 10:19:02;;;;;;;10.23;9.73;;;5.00;92.00;;;;;;5078425;28;20391;-79
2023/11/30 10:21:28;;;;;;;10.95;10.45;;;4.90;91.90;;;;;;5095524;28;20020;-76
2023/11/30 10:23:54;;;;;;;10.63;10.13;;;4.80;91.80;;;;;;5113794;28;20115;-75
2023/11/30 10:26:22;;;;;;;9.15;8.73;;;4.80;92.20;;;;;;5113174;28;20734;-76
2023/11/30 10:28:52;;;;;;;10.75;10.25;;;5.00;92.40;;;;;;5113548;28;20039;-75
2023/11/30 10:31:22;;;;;;;11.35;10.85;;;5.00;92.20;;;;;;5113090;28;20053;-75
2023/11/30 10:33:58;;;;;;;10.80;10.30;;;5.60;93.40;;;;;;5078703;28;20028;-75
2023/11/30 10:36:26;;;;;;;8.80;8.40;;;6.70;94.00;;;;;;5113360;28;20024;-75
2023/11/30 10:39:00;;;;;;;4.70;4.40;;;7.60;93.80;;;;;;5091495;28;20127;-77
2023/11/30 10:41:44;;;;;;;1.85;1.75;;;8.30;93.70;;;;;;5109164;28;20019;-76
2023/11/30 10:44:12;;;;;;;0.98;0.98;;;8.40;92.90;;;;;;5098361;28;20054;-76
2023/11/30 10:46:40;;;;;;;1.10;1.10;;;8.10;92.70;;;;;;5092424;28;20480;-77
2023/11/30 10:49:06;;;;;;;1.30;1.20;;;7.60;92.10;;;;;;5100604;28;20046;-76
2023/11/30 10:51:33;;;;;;;1.77;1.67;;;7.10;92.10;;;;;;5095249;28;20047;-77
2023/11/30 10:54:07;;;;;;;2.50;2.30;;;6.60;92.10;;;;;;5095142;28;20410;-76
2023/11/30 10:56:33;;;;;;;2.85;2.65;;;6.20;92.20;;;;;;5109210;28;20375;-76
2023/11/30 10:58:59;;;;;;;3.03;2.83;;;6.00;92.30;;;;;;5086978;28;20028;-79
2023/11/30 11:01:28;;;;;;;4.25;3.95;;;5.80;92.40;;;;;;5094981;28;20172;-76
2023/11/30 11:03:57;;;;;;;3.63;3.33;;;5.70;92.50;;;;;;5094663;28;20046;-77
2023/11/30 11:06:26;;;;;;;3.22;3.03;;;5.60;92.50;;;;;;5094334;28;20093;-83
2023/11/30 11:09:00;;;;;;;3.28;3.08;;;5.60;92.40;;;;;;5095575;28;20032;-79
2023/11/30 11:11:30;;;;;;;3.13;2.92;;;5.50;92.40;;;;;;5075725;28;20115;-78
2023/11/30 11:13:55;;;;;;;3.60;3.30;;;5.50;92.40;;;;;;5101830;28;20012;-75
2023/11/30 11:16:33;;;;;;;2.97;2.78;;;5.40;92.40;;;;;;5106476;28;20028;-79
2023/11/30 11:19:01;;;;;;;3.80;3.50;;;5.40;92.40;;;;;;5064179;28;20030;-73
2023/11/30 11:21:29;;;;;;;3.60;3.30;;;5.40;92.40;;;;;;5098225;28;20025;-77
2023/11/30 11:24:03;;;;;;;3.70;3.40;;;5.40;92.40;;;;;;5088720;28;20047;-78
2023/11/30 11:26:42;;;;;;;3.53;3.22;;;5.50;92.40;;;;;;5117681;28;20039;-77
2023/11/30 11:29:08;;;;;;;3.90;3.60;;;5.50;92.40;;;;;;5117334;28;20027;-75
2023/11/30 11:31:34;;;;;;;2.97;2.78;;;5.50;92.30;;;;;;5110275;28;20451;-76
2023/11/30 11:34:00;;;;;;;3.20;3.00;;;5.60;92.30;;;;;;5110559;28;20160;-77
2023/11/30 11:36:25;;;;;;;4.13;3.83;;;5.50;92.20;;;;;;5108521;28;20145;-77
2023/11/30 11:38:51;;;;;;;4.00;3.70;;;5.50;92.30;;;;;;5096426;28;20066;-73
2023/11/30 11:41:20;;;;;;;4.28;3.97;;;5.60;92.40;;;;;;5108775;28;20035;-77
2023/11/30 11:43:49;;;;;;;3.75;3.45;;;5.60;92.40;;;;;;5094313;28;20035;-74
2023/11/30 11:46:14;;;;;;;4.53;4.22;;;5.70;92.40;;;;;;5095091;28;20057;-76
2023/11/30 11:48:40;;;;;;;4.10;3.80;;;5.80;92.40;;;;;;5110363;28;20460;-73
2023/11/30 11:51:06;;;;;;;3.80;3.50;;;5.80;92.40;;;;;;5103531;28;20024;-73
2023/11/30 11:53:38;;;;;;;3.65;3.35;;;5.90;92.40;;;;;;5104398;28;20016;-75
2023/11/30 11:56:06;;;;;;;3.70;3.40;;;5.90;92.30;;;;;;5109835;28;20017;-75
2023/11/30 11:58:32;;;;;;;3.80;3.50;;;6.00;92.70;;;;;;5095657;28;20108;-78
2023/11/30 12:00:57;;;;;;;3.85;3.55;;;6.10;92.60;;;;;;5098842;28;20452;-77
2023/11/30 12:03:23;;;;;;;3.60;3.30;;;6.20;92.60;;;;;;5089807;28;20475;-76
2023/11/30 12:05:49;;;;;;;3.05;2.85;;;6.30;92.50;;;;;;5093267;28;20036;-74
2023/11/30 12:08:15;;;;;;;3.17;2.97;;;6.30;92.40;;;;;;5111829;28;20052;-74
2023/11/30 12:10:43;;;;;;;3.42;3.15;;;6.30;92.40;;;;;;5097982;28;20035;-74
2023/11/30 12:13:12;;;;;;;2.92;2.72;;;6.30;92.40;;;;;;5097688;28;20073;-76
2023/11/30 12:15:37;;;;;;;3.67;3.38;;;6.30;92.40;;;;;;5109499;28;20357;-74
2023/11/30 12:18:04;;;;;;;3.08;2.88;;;6.30;92.40;;;;;;5096910;28;20111;-76
2023/11/30 12:20:31;;;;;;;2.90;2.70;;;6.30;92.40;;;;;;5115530;28;20055;-76
2023/11/30 12:22:57;;;;;;;3.13;2.92;;;6.30;92.40;;;;;;5097413;28;20024;-75
2023/11/30 12:25:24;;;;;;;;;;;6.40;92.40;;;;;;5107068;28;20114;-78
2023/11/30 12:27:50;;;;;;;3.40;3.10;;;6.50;92.40;;;;;;5114212;28;19969;-76
2023/11/30 12:30:16;;;;;;;3.72;3.42;;;6.50;92.40;;;;;;5115672;28;20019;-74
2023/11/30 12:32:42;;;;;;;3.70;3.40;;;6.60;92.40;;;;;;5115717;28;20485;-77
2023/11/30 12:35:08;;;;;;;3.20;3.00;;;6.70;92.40;;;;;;5097600;28;20058;-74
2023/11/30 12:37:35;;;;;;;3.58;3.28;;;6.80;92.40;;;;;;5116450;28;20049;-76
2023/11/30 12:40:02;;;;;;;3.65;3.35;;;6.90;92.40;;;;;;5117846;28;20027;-76
2023/11/30 12:42:28;;;;;;;3.40;3.10;;;6.90;92.30;;;;;;5097823;28;20043;-78
2023/11/30 12:44:54;;;;;;;3.90;3.60;;;7.00;92.30;;;;;;5080864;28;20039;-78
2023/11/30 12:47:21;;;;;;;3.25;3.05;;;6.90;92.20;;;;;;5116058;28;20032;-79
2023/11/30 12:49:50;;;;;;;3.05;2.85;;;6.90;92.20;;;;;;5081370;28;20059;-79